Speed, Missouri
Current Conditions -  °F | °C
As of 4:15 PM on Wednesday 22 Oct 2014 (Local Time) from KVER Reporting Station
Haze Haze  
Wind Chill: 67°   Ceiling: 200
Heat Index: 67°   Visibility: 0.25mi
Dew Point: 44°   Wind: 12mph
Humidity: 43%   Direction: 120°ESE
Pressure: 30.16"   Gusts: 16mph
Location:  38.8814°N, 92.7602°W
Report Text: KVER 222115Z AUTO 12010G14KT 1/4SM HZ VV002 20/07 A3016 RMK AO2 T01950067
Loading
Personal Weather Stations






























Interactive Weather Map New forecast layout! Learn more

10-Day Weather Forecast

Advertisements
Track Severe Weather on mobile